createdAt,value
2022-08-08T00:00:56.526Z,100886.50
2022-08-08T00:03:32.383Z,100890.72
2022-08-08T00:06:12.688Z,100895.00
2022-08-08T00:08:53.393Z,100883.50
2022-08-08T00:11:47.184Z,100883.88
2022-08-08T00:14:57.155Z,100880.28
2022-08-08T00:18:03.244Z,100874.13
2022-08-08T00:20:41.190Z,100882.16
2022-08-08T00:23:14.762Z,100880.09
2022-08-08T00:25:50.834Z,100883.13
2022-08-08T00:28:35.705Z,100876.44
2022-08-08T00:32:19.911Z,100882.84
2022-08-08T00:34:31.670Z,100883.78
2022-08-08T00:37:16.532Z,100896.50
2022-08-08T00:41:10.210Z,100898.28
2022-08-08T00:43:59.010Z,100895.16
2022-08-08T00:46:56.933Z,100891.44
2022-08-08T00:49:58.758Z,100897.56
2022-08-08T00:52:58.056Z,100885.44
2022-08-08T00:55:53.992Z,100885.72
2022-08-08T00:58:38.499Z,100871.41
2022-08-08T01:01:29.378Z,100881.22
2022-08-08T01:04:15.567Z,100883.91
2022-08-08T01:07:20.835Z,100884.75
2022-08-08T01:10:37.912Z,100891.72
2022-08-08T01:13:43.883Z,100892.88
2022-08-08T01:16:56.730Z,100896.88
2022-08-08T01:20:02.582Z,100895.94
2022-08-08T01:22:48.703Z,100904.81
2022-08-08T01:25:54.498Z,100892.34
2022-08-08T01:28:41.473Z,100890.72
2022-08-08T01:32:12.956Z,100897.50
2022-08-08T01:34:44.190Z,100887.66
2022-08-08T01:37:37.186Z,100886.34
2022-08-08T01:40:34.908Z,100884.09
2022-08-08T01:43:15.595Z,100894.59
2022-08-08T01:45:56.422Z,100888.72
2022-08-08T01:49:00.091Z,100898.81
2022-08-08T01:52:27.951Z,100894.53
2022-08-08T01:55:26.836Z,100902.97
2022-08-08T01:58:13.250Z,100897.28
2022-08-08T02:00:58.151Z,100894.97
2022-08-08T02:04:12.867Z,100894.13
2022-08-08T02:06:49.786Z,100895.69
2022-08-08T02:10:01.974Z,100893.38
2022-08-08T02:12:37.351Z,100891.47
2022-08-08T02:15:43.343Z,100895.56
2022-08-08T02:18:18.377Z,100897.34
2022-08-08T02:21:34.928Z,100891.41
2022-08-08T02:24:31.609Z,100892.94
2022-08-08T02:27:14.191Z,100892.94
2022-08-08T02:29:51.948Z,100899.94
2022-08-08T02:32:38.579Z,100898.69
2022-08-08T02:35:30.986Z,100890.66
2022-08-08T02:38:50.749Z,100897.06
2022-08-08T02:42:04.129Z,100901.31
2022-08-08T02:44:57.099Z,100895.41
2022-08-08T02:48:06.209Z,100900.13
2022-08-08T02:50:56.008Z,100901.88
2022-08-08T02:54:04.890Z,100908.91
2022-08-08T02:57:02.512Z,100905.53
2022-08-08T02:59:57.041Z,100904.50
2022-08-08T03:03:02.716Z,100900.28
2022-08-08T03:05:44.827Z,100902.38
2022-08-08T03:08:52.093Z,100906.66
2022-08-08T03:12:02.076Z,100903.28
2022-08-08T03:15:57.989Z,100917.03
2022-08-08T03:18:04.846Z,100914.69
2022-08-08T03:20:42.189Z,100910.06
2022-08-08T03:23:17.902Z,100914.28
2022-08-08T03:25:50.216Z,100912.59
2022-08-08T03:28:26.132Z,100914.69
2022-08-08T03:31:13.593Z,100918.50
2022-08-08T03:34:00.315Z,100918.50
2022-08-08T03:36:30.568Z,100908.97
2022-08-08T03:39:14.376Z,100921.44
2022-08-08T03:42:12.467Z,100920.81
2022-08-08T03:44:33.850Z,100931.38
2022-08-08T03:47:01.005Z,100934.97
2022-08-08T03:49:57.634Z,100930.97
2022-08-08T03:52:31.579Z,100939.63
2022-08-08T03:55:09.580Z,100942.34
2022-08-08T03:58:31.359Z,100945.31
2022-08-08T04:00:26.747Z,100971.78
2022-08-08T04:02:57.582Z,100980.88
2022-08-08T04:05:29.626Z,100973.47
2022-08-08T04:07:58.410Z,100968.78
2022-08-08T04:10:32.174Z,100987.84
2022-08-08T04:12:59.442Z,101023.00
2022-08-08T04:15:30.418Z,100991.03
2022-08-08T04:18:09.420Z,100983.63
2022-08-08T04:20:43.609Z,100974.94
2022-08-08T04:23:12.120Z,100978.53
2022-08-08T04:25:44.335Z,100978.72
2022-08-08T04:28:37.294Z,100975.97
2022-08-08T04:31:01.218Z,100975.56
2022-08-08T04:33:38.575Z,100981.91
2022-08-08T04:36:08.614Z,101028.47
2022-08-08T04:38:35.440Z,101024.28
2022-08-08T04:41:02.028Z,101034.25
2022-08-08T04:43:32.289Z,101039.56
2022-08-08T04:46:11.768Z,101015.84
2022-08-08T04:48:41.099Z,101042.31
2022-08-08T04:51:09.104Z,101052.28
2022-08-08T04:54:30.257Z,101050.81
2022-08-08T04:56:22.334Z,101069.47
2022-08-08T04:58:50.644Z,101071.38
2022-08-08T05:01:17.864Z,101027.75
2022-08-08T05:04:10.272Z,101040.47
2022-08-08T05:06:30.922Z,101069.69
2022-08-08T05:09:02.201Z,101076.47
2022-08-08T05:11:30.391Z,101078.59
2022-08-08T05:14:12.031Z,101065.88
2022-08-08T05:16:55.391Z,101076.53
2022-08-08T05:20:12.462Z,101088.81
2022-08-08T05:22:11.958Z,101090.94
2022-08-08T05:24:38.823Z,101066.34
2022-08-08T05:27:06.679Z,101089.66
2022-08-08T05:29:35.946Z,101054.44
2022-08-08T05:32:08.018Z,101092.38
2022-08-08T05:34:49.221Z,101085.78
2022-08-08T05:37:39.017Z,101083.81
2022-08-08T05:40:11.941Z,101072.34
2022-08-08T05:42:45.715Z,101112.84
2022-08-08T05:45:25.351Z,101061.44
2022-08-08T05:48:01.329Z,101084.25
2022-08-08T05:50:33.844Z,101108.00
2022-08-08T05:53:54.344Z,101089.03
2022-08-08T05:56:10.973Z,101060.91
2022-08-08T05:58:54.094Z,101107.81
2022-08-08T06:01:56.017Z,101089.41
2022-08-08T06:04:25.056Z,101101.25
2022-08-08T06:07:00.605Z,101147.63
2022-08-08T06:09:58.812Z,101124.09
2022-08-08T06:12:29.597Z,101134.00
2022-08-08T06:15:00.440Z,101137.59
2022-08-08T06:17:32.087Z,101094.88
2022-08-08T06:20:16.485Z,101136.31
2022-08-08T06:22:46.218Z,101116.03
2022-08-08T06:25:58.789Z,101104.94
2022-08-08T06:28:29.298Z,101100.31
2022-08-08T06:30:59.561Z,101077.53
2022-08-08T06:34:25.145Z,101152.50
2022-08-08T06:36:41.388Z,101110.72
2022-08-08T06:39:21.891Z,101154.88
2022-08-08T06:41:57.145Z,101153.81
2022-08-08T06:44:27.103Z,101132.56
2022-08-08T06:46:58.813Z,101145.97
2022-08-08T06:49:56.260Z,101106.81
2022-08-08T06:52:20.046Z,101112.44
2022-08-08T06:54:48.750Z,101118.97
2022-08-08T06:57:15.811Z,101153.09
2022-08-08T07:00:10.633Z,101153.09
2022-08-08T07:02:45.993Z,101134.84
2022-08-08T07:05:20.810Z,101125.19
2022-08-08T07:08:00.962Z,101154.16
2022-08-08T07:10:47.508Z,101148.59
2022-08-08T07:13:17.838Z,101156.34
2022-08-08T07:16:13.531Z,101139.50
2022-08-08T07:19:02.484Z,101139.94
2022-08-08T07:21:44.431Z,101144.59
2022-08-08T07:24:25.334Z,101146.53
2022-08-08T07:26:57.698Z,101133.44
2022-08-08T07:29:59.758Z,101145.28
2022-08-08T07:32:15.836Z,101153.63
2022-08-08T07:34:59.313Z,101134.59
2022-08-08T07:37:42.498Z,101152.88
2022-08-08T07:40:21.058Z,101151.56
2022-08-08T07:42:56.602Z,101141.94
2022-08-08T07:45:26.741Z,101144.50
2022-08-08T07:48:03.289Z,101136.88
2022-08-08T07:50:37.214Z,101140.81
2022-08-08T07:53:52.344Z,101148.66
2022-08-08T07:56:10.826Z,101145.66
2022-08-08T07:58:42.709Z,101148.72
2022-08-08T08:01:13.708Z,101139.44
2022-08-08T08:04:13.635Z,101151.53
2022-08-08T08:06:42.126Z,101143.28
2022-08-08T08:09:18.237Z,101156.72
2022-08-08T08:11:52.755Z,101143.44
2022-08-08T08:14:31.934Z,101155.19
2022-08-08T08:16:59.613Z,101159.66
2022-08-08T08:19:44.996Z,101142.00
2022-08-08T08:22:16.112Z,101150.31
2022-08-08T08:25:08.158Z,101132.78
2022-08-08T08:27:35.774Z,101144.81
2022-08-08T08:30:08.923Z,101151.50
2022-08-08T08:32:40.953Z,101153.63
2022-08-08T08:35:16.903Z,101136.25
2022-08-08T08:38:14.571Z,101152.34
2022-08-08T08:40:43.919Z,101145.13
2022-08-08T08:43:18.777Z,101147.41
2022-08-08T08:45:47.606Z,101141.88
2022-08-08T08:48:19.267Z,101137.25
2022-08-08T08:50:51.952Z,101150.03
2022-08-08T08:53:27.586Z,101137.19
2022-08-08T08:56:14.441Z,101141.22
2022-08-08T08:58:50.375Z,101147.00
2022-08-08T09:01:43.829Z,101127.84
2022-08-08T09:04:30.291Z,101127.31
2022-08-08T09:07:13.622Z,101143.47
2022-08-08T09:09:47.653Z,101143.25
2022-08-08T09:12:27.434Z,101125.97
2022-08-08T09:14:56.720Z,101137.19
2022-08-08T09:17:41.837Z,101130.47
2022-08-08T09:21:58.982Z,101131.03
2022-08-08T09:23:17.250Z,101121.50
2022-08-08T09:26:00.707Z,101144.19
2022-08-08T09:28:42.962Z,101137.47
2022-08-08T09:31:42.246Z,101141.09
2022-08-08T09:34:32.266Z,101133.53
2022-08-08T09:37:58.321Z,101137.47
2022-08-08T09:40:20.132Z,101131.03
2022-08-08T09:42:51.877Z,101118.13
2022-08-08T09:46:01.895Z,101118.97
2022-08-08T09:48:35.401Z,101129.59
2022-08-08T09:51:05.134Z,101123.75
2022-08-08T09:53:59.029Z,101134.69
2022-08-08T09:56:41.234Z,101122.91
2022-08-08T09:59:50.378Z,101108.75
2022-08-08T10:02:12.391Z,101099.44
2022-08-08T10:04:47.430Z,101104.75
2022-08-08T10:07:16.585Z,101113.50
2022-08-08T10:09:59.646Z,101126.41
2022-08-08T10:12:53.065Z,101124.56
2022-08-08T10:15:28.109Z,101118.59
2022-08-08T10:18:09.185Z,101118.81
2022-08-08T10:20:58.099Z,101110.66
2022-08-08T10:23:56.053Z,101101.38
2022-08-08T10:26:57.049Z,101096.75
2022-08-08T10:29:57.114Z,101111.72
2022-08-08T10:32:39.175Z,101093.19
2022-08-08T10:36:01.814Z,101091.00
2022-08-08T10:38:07.919Z,101102.59
2022-08-08T10:40:38.527Z,101082.88
2022-08-08T10:43:09.992Z,101087.91
2022-08-08T10:45:55.146Z,101092.78
2022-08-08T10:48:56.009Z,101081.94
2022-08-08T10:51:31.530Z,101078.03
2022-08-08T10:54:20.950Z,101079.63
2022-08-08T10:57:03.916Z,101081.47
2022-08-08T10:59:31.393Z,101078.91
2022-08-08T11:02:07.311Z,101078.84
2022-08-08T11:04:44.777Z,101075.41
2022-08-08T11:08:31.117Z,101077.88
2022-08-08T11:10:29.239Z,101078.34
2022-08-08T11:13:27.788Z,101085.88
2022-08-08T11:15:53.138Z,101072.63
2022-08-08T11:18:32.114Z,101066.41
2022-08-08T11:21:08.856Z,101064.53
2022-08-08T11:23:37.071Z,101054.53
2022-08-08T11:26:05.897Z,101062.97
2022-08-08T11:28:38.785Z,101053.06
2022-08-08T11:31:09.485Z,101047.84
2022-08-08T11:33:53.135Z,101058.63
2022-08-08T11:36:27.854Z,101056.09
2022-08-08T11:39:03.094Z,101072.00
2022-08-08T11:41:33.656Z,101053.59
2022-08-08T11:44:01.378Z,101046.94
2022-08-08T11:46:38.931Z,101034.78
2022-08-08T11:49:11.427Z,101048.50
2022-08-08T11:51:50.037Z,101050.06
2022-08-08T11:54:32.105Z,101049.16
2022-08-08T11:57:27.560Z,101046.09
2022-08-08T12:00:05.785Z,101039.28
2022-08-08T12:02:34.082Z,101050.63
2022-08-08T12:05:03.217Z,101037.91
2022-08-08T12:07:29.688Z,101034.13
2022-08-08T12:10:09.635Z,101021.31
2022-08-08T12:12:45.913Z,101024.66
2022-08-08T12:15:27.641Z,101026.28
2022-08-08T12:18:01.215Z,101021.06
2022-08-08T12:20:41.767Z,101035.28
2022-08-08T12:23:14.034Z,101028.66
2022-08-08T12:25:55.110Z,101023.34
2022-08-08T12:28:25.946Z,101017.09
2022-08-08T12:31:04.655Z,100996.66
2022-08-08T12:33:37.100Z,100984.97
2022-08-08T12:36:12.196Z,100986.97
2022-08-08T12:38:49.646Z,100995.53
2022-08-08T12:41:33.477Z,100995.09
2022-08-08T12:44:09.056Z,100995.97
2022-08-08T12:46:36.472Z,100998.41
2022-08-08T12:49:25.562Z,100996.88
2022-08-08T12:52:00.600Z,100980.91
2022-08-08T12:54:38.482Z,100989.13
2022-08-08T12:57:17.130Z,100992.25
2022-08-08T13:00:03.850Z,100992.56
2022-08-08T13:02:34.369Z,100987.38
2022-08-08T13:05:15.687Z,100996.59
2022-08-08T13:08:03.487Z,100983.25
2022-08-08T13:10:33.566Z,100992.56
2022-08-08T13:13:05.589Z,100994.41
2022-08-08T13:15:54.865Z,100984.03
2022-08-08T13:18:27.221Z,100982.81
2022-08-08T13:20:55.938Z,100973.63
2022-08-08T13:23:36.534Z,100967.78
2022-08-08T13:26:13.332Z,100977.19
2022-08-08T13:28:42.519Z,100963.81
2022-08-08T13:31:12.791Z,100968.59
2022-08-08T13:33:47.298Z,100968.44
2022-08-08T13:36:26.327Z,100959.94
2022-08-08T13:38:54.208Z,100958.03
2022-08-08T13:41:22.092Z,100962.66
2022-08-08T13:43:50.804Z,100961.00
2022-08-08T13:46:27.193Z,100958.50
2022-08-08T13:49:11.946Z,100955.91
2022-08-08T13:52:02.541Z,100952.00
2022-08-08T13:54:34.780Z,100961.97
2022-08-08T13:57:15.954Z,100964.81
2022-08-08T13:59:48.555Z,100948.34
2022-08-08T14:02:20.604Z,100939.75
2022-08-08T14:05:04.791Z,100944.03
2022-08-08T14:07:44.620Z,100942.97
2022-08-08T14:10:33.556Z,100943.34
2022-08-08T14:13:20.736Z,100947.41
2022-08-08T14:16:02.376Z,100933.78
2022-08-08T14:18:36.618Z,100940.72
2022-08-08T14:21:20.905Z,100937.50
2022-08-08T14:24:04.563Z,100939.94
2022-08-08T14:26:41.667Z,100939.88
2022-08-08T14:29:28.088Z,100939.25
2022-08-08T14:32:09.036Z,100938.19
2022-08-08T14:34:42.885Z,100935.91
2022-08-08T14:37:13.042Z,100928.91
2022-08-08T14:39:49.408Z,100929.38
2022-08-08T14:42:27.468Z,100931.56
2022-08-08T14:45:01.786Z,100928.81
2022-08-08T14:47:30.310Z,100919.41
2022-08-08T14:50:22.577Z,100917.84
2022-08-08T14:53:04.342Z,100918.56
2022-08-08T14:55:41.412Z,100917.66
2022-08-08T14:58:19.981Z,100910.34
2022-08-08T15:00:52.900Z,100909.84
2022-08-08T15:03:20.978Z,100909.41
2022-08-08T15:05:54.007Z,100908.81
2022-08-08T15:08:35.620Z,100908.78
2022-08-08T15:11:11.001Z,100906.50
2022-08-08T15:14:03.142Z,100903.16
2022-08-08T15:16:27.902Z,100888.03
2022-08-08T15:18:57.038Z,100889.13
2022-08-08T15:21:27.610Z,100908.22
2022-08-08T15:23:56.659Z,100903.50
2022-08-08T15:26:25.681Z,100905.19
2022-08-08T15:28:54.157Z,100906.81
2022-08-08T15:31:56.353Z,100900.22
2022-08-08T15:34:08.544Z,100905.84
2022-08-08T15:36:35.284Z,100909.97
2022-08-08T15:39:05.316Z,100908.50
2022-08-08T15:41:43.573Z,100909.63
2022-08-08T15:44:13.367Z,100900.22
2022-08-08T15:46:45.247Z,100905.28
2022-08-08T15:49:17.038Z,100910.72
2022-08-08T15:51:43.587Z,100909.72
2022-08-08T15:54:18.455Z,100903.94
2022-08-08T15:56:58.911Z,100894.72
2022-08-08T16:00:06.291Z,100895.22
2022-08-08T16:02:14.469Z,100896.63
2022-08-08T16:04:42.388Z,100900.28
2022-08-08T16:07:09.068Z,100895.56
2022-08-08T16:13:10.890Z,100884.19
2022-08-08T16:13:13.954Z,100889.47
2022-08-08T16:15:09.157Z,100877.16
2022-08-08T16:18:06.315Z,100882.72
2022-08-08T16:20:30.914Z,100884.97
2022-08-08T16:22:57.459Z,100893.66
2022-08-08T16:25:24.475Z,100886.38
2022-08-08T16:28:34.168Z,100889.72
2022-08-08T16:30:59.036Z,100882.50
2022-08-08T16:33:38.656Z,100890.09
2022-08-08T16:36:08.543Z,100882.41
2022-08-08T16:38:47.311Z,100872.00
2022-08-08T16:41:22.456Z,100871.47
2022-08-08T16:43:51.872Z,100879.91
2022-08-08T16:46:43.196Z,100880.38
2022-08-08T16:49:09.125Z,100880.09
2022-08-08T16:55:01.174Z,100881.28
2022-08-08T16:55:02.363Z,100879.00
2022-08-08T16:57:27.881Z,100884.94
2022-08-08T17:00:01.198Z,100879.53
2022-08-08T17:02:39.613Z,100882.94
2022-08-08T17:05:08.344Z,100889.19
2022-08-08T17:07:37.513Z,100898.22
2022-08-08T17:10:07.350Z,100895.19
2022-08-08T17:12:46.884Z,100885.69
2022-08-08T17:15:25.609Z,100880.38
2022-08-08T17:18:13.433Z,100894.13
2022-08-08T17:20:42.468Z,100886.81
2022-08-08T17:23:17.545Z,100904.59
2022-08-08T17:25:57.056Z,100891.69
2022-08-08T17:28:34.962Z,100901.25
2022-08-08T17:31:39.184Z,100903.44
2022-08-08T17:34:36.902Z,100898.16
2022-08-08T17:37:00.626Z,100901.91
2022-08-08T17:40:04.297Z,100913.19
2022-08-08T17:42:19.402Z,100910.38
2022-08-08T17:44:49.190Z,100909.06
2022-08-08T17:47:23.797Z,100919.25
2022-08-08T17:50:10.119Z,100909.38
2022-08-08T17:52:38.011Z,100916.72
2022-08-08T17:55:22.453Z,100919.88
2022-08-08T17:57:55.000Z,100911.22
2022-08-08T18:00:30.274Z,100909.81
2022-08-08T18:03:08.861Z,100923.63
2022-08-08T18:05:48.341Z,100919.22
2022-08-08T18:08:25.239Z,100915.88
2022-08-08T18:11:14.884Z,100917.63
2022-08-08T18:13:43.215Z,100923.47
2022-08-08T18:16:11.026Z,100919.72
2022-08-08T18:18:45.236Z,100930.69
2022-08-08T18:21:35.160Z,100928.41
2022-08-08T18:24:07.435Z,100930.72
2022-08-08T18:26:53.428Z,100933.59
2022-08-08T18:29:29.634Z,100943.16
2022-08-08T18:32:03.347Z,100944.56
2022-08-08T18:34:30.562Z,100947.16
2022-08-08T18:37:00.375Z,100942.09
2022-08-08T18:39:28.222Z,100944.41
2022-08-08T18:42:02.819Z,100943.56
2022-08-08T18:44:34.665Z,100952.38
2022-08-08T18:47:02.794Z,100945.09
2022-08-08T18:49:32.716Z,100955.78
2022-08-08T18:52:22.305Z,100963.34
2022-08-08T18:54:59.376Z,100964.19
2022-08-08T18:57:36.876Z,100963.94
2022-08-08T19:00:15.428Z,100966.75
2022-08-08T19:02:56.859Z,100974.94
2022-08-08T19:05:34.162Z,100977.22
2022-08-08T19:08:10.199Z,100981.69
2022-08-08T19:10:53.407Z,101001.31
2022-08-08T19:13:21.584Z,101001.88
2022-08-08T19:15:48.514Z,101006.09
2022-08-08T19:18:31.334Z,101006.69
2022-08-08T19:21:05.571Z,101008.09
2022-08-08T19:23:56.111Z,101006.72
2022-08-08T19:26:29.911Z,101006.69
2022-08-08T19:28:57.187Z,101013.72
2022-08-08T19:31:31.491Z,101017.66
2022-08-08T19:34:36.235Z,101026.59
2022-08-08T19:36:52.259Z,101015.38
2022-08-08T19:39:19.472Z,101021.81
2022-08-08T19:41:51.878Z,101024.91
2022-08-08T19:44:42.418Z,101033.56
2022-08-08T19:47:06.538Z,101025.97
2022-08-08T19:49:38.047Z,101023.91
2022-08-08T19:52:05.485Z,101037.81
2022-08-08T19:54:31.987Z,101032.66
2022-08-08T19:56:58.942Z,101035.91
2022-08-08T19:59:34.975Z,101028.47
2022-08-08T20:02:06.870Z,101028.00
2022-08-08T20:04:37.734Z,101030.00
2022-08-08T20:08:28.825Z,101035.41
2022-08-08T20:09:57.060Z,101026.38
2022-08-08T20:12:32.205Z,101034.13
2022-08-08T20:15:02.306Z,101026.16
2022-08-08T20:17:41.947Z,101030.34
2022-08-08T20:20:19.161Z,101036.13
2022-08-08T20:22:52.421Z,101035.91
2022-08-08T20:25:20.737Z,101038.16
2022-08-08T20:27:50.323Z,101039.63
2022-08-08T20:30:53.368Z,101033.72
2022-08-08T20:33:08.068Z,101043.97
2022-08-08T20:35:56.763Z,101043.19
2022-08-08T20:38:29.113Z,101048.16
2022-08-08T20:41:05.984Z,101044.50
2022-08-08T20:43:49.681Z,101059.00
2022-08-08T20:46:20.287Z,101051.22
2022-08-08T20:48:47.624Z,101053.19
2022-08-08T20:51:14.306Z,101049.63
2022-08-08T20:54:01.177Z,101050.22
2022-08-08T20:56:35.908Z,101047.91
2022-08-08T20:59:05.893Z,101042.81
2022-08-08T21:01:33.340Z,101043.59
2022-08-08T21:04:19.641Z,101049.06
2022-08-08T21:06:52.585Z,101047.78
2022-08-08T21:09:21.587Z,101046.09
2022-08-08T21:11:51.285Z,101045.91
2022-08-08T21:14:30.518Z,101040.97
2022-08-08T21:17:06.356Z,101046.69
2022-08-08T21:19:44.160Z,101042.06
2022-08-08T21:22:11.733Z,101053.97
2022-08-08T21:24:39.375Z,101043.72
2022-08-08T21:27:15.523Z,101047.56
2022-08-08T21:30:03.809Z,101046.59
2022-08-08T21:32:33.115Z,101037.72
2022-08-08T21:36:16.379Z,101039.09
2022-08-08T21:37:53.705Z,101040.28
2022-08-08T21:40:31.458Z,101030.00
2022-08-08T21:42:58.679Z,101039.66
2022-08-08T21:47:59.747Z,101045.84
2022-08-08T21:48:19.875Z,101044.16
2022-08-08T21:50:49.535Z,101041.97
2022-08-08T21:54:23.065Z,101040.47
2022-08-08T21:56:24.630Z,101033.63
2022-08-08T21:58:54.972Z,101034.72
2022-08-08T22:01:38.759Z,101043.34
2022-08-08T22:04:07.267Z,101034.50
2022-08-08T22:06:37.955Z,101047.88
2022-08-08T22:09:09.777Z,101053.22
2022-08-08T22:11:52.897Z,101048.50
2022-08-08T22:14:26.799Z,101056.06
2022-08-08T22:16:56.024Z,101050.00
2022-08-08T22:19:23.755Z,101043.41
2022-08-08T22:21:51.124Z,101039.94
2022-08-08T22:24:17.652Z,101049.66
2022-08-08T22:27:02.219Z,101037.16
2022-08-08T22:30:01.193Z,101036.59
2022-08-08T22:32:17.911Z,101035.13
2022-08-08T22:34:50.774Z,101039.16
2022-08-08T22:37:48.737Z,101040.38
2022-08-08T22:40:16.384Z,101041.22
2022-08-08T22:42:43.344Z,101038.13
2022-08-08T22:45:14.188Z,101033.75
2022-08-08T22:47:47.015Z,101038.63
2022-08-08T22:50:26.113Z,101043.59
2022-08-08T22:54:17.025Z,101047.03
2022-08-08T22:55:58.517Z,101048.28
2022-08-08T22:58:38.692Z,101044.31
2022-08-08T23:01:16.716Z,101048.38
2022-08-08T23:04:01.716Z,101052.59
2022-08-08T23:06:28.301Z,101059.00
2022-08-08T23:08:59.002Z,101061.88
2022-08-08T23:11:31.195Z,101058.81
2022-08-08T23:14:20.362Z,101067.50
2022-08-08T23:16:59.417Z,101059.75
2022-08-08T23:19:34.141Z,101061.44
2022-08-08T23:22:02.202Z,101062.34
2022-08-08T23:24:36.793Z,101067.06
2022-08-08T23:27:11.461Z,101059.81
2022-08-08T23:29:57.341Z,101064.81
2022-08-08T23:32:26.589Z,101061.00
2022-08-08T23:34:58.752Z,101051.47
2022-08-08T23:38:00.960Z,101066.72
2022-08-08T23:40:22.844Z,101060.84
2022-08-08T23:42:49.459Z,101061.78
2022-08-08T23:45:18.060Z,101064.63
2022-08-08T23:49:07.967Z,101066.63
2022-08-08T23:50:31.377Z,101059.06
2022-08-08T23:52:59.064Z,101050.78
2022-08-08T23:55:31.947Z,101054.75
2022-08-08T23:57:58.629Z,101050.75
